.
WxDataArchive / Data Records for 2008-06-11
2008-06-10 June 2008 2008-06-12

Data Records for Wednesday, 11 June 2008

Time	Temp	Chill	HIndex	Humid	Dewpt	 Wind 	HiWind	WindDir	Rain 	Barom 
-----	----	-----	------	-----	-----	------	------	-------	-----	----- 
00:00	63.4	63.4	63.4	82	57.8	0	0	---	0.00	29.973 
00:05	63.2	63.2	63.2	82	57.6	0	0	---	0.00	29.974 
00:10	63.2	63.2	63.2	82	57.6	0	0	---	0.00	29.973 
00:15	63.2	63.2	63.2	82	57.6	0	0	---	0.00	29.973 
00:20	63.2	63.2	63.2	82	57.6	0	0	---	0.00	29.973 
00:25	63.2	63.2	63.2	83	57.9	0	0	---	0.00	29.974 
00:30	63.1	63.1	63.1	83	57.8	0	0	---	0.00	29.974 
00:35	63.1	63.1	63.1	83	57.8	0	0	---	0.00	29.973 
00:40	63.1	63.1	63.1	83	57.8	0	0	---	0.00	29.973 
00:45	63.2	63.2	63.2	83	57.9	0	1	292	0.00	29.976 
00:50	63.5	63.5	63.5	82	57.9	0	1	292	0.00	29.976 
00:55	63.9	63.9	63.9	81	57.9	0	1	292	0.00	29.975 
01:00	64.2	64.2	64.2	81	58.2	0	1	292	0.00	29.974 
01:05	64.2	64.2	64.2	81	58.2	0	1	292	0.00	29.975 
01:10	64.2	64.2	64.2	80	57.9	0	0	---	0.00	29.974 
01:15	64.2	64.2	64.2	80	57.9	0	0	---	0.00	29.974 
01:20	64.0	64.0	64.0	81	58.0	0	0	---	0.00	29.973 
01:25	63.9	63.9	63.9	81	57.9	0	0	---	0.00	29.974 
01:30	63.7	63.7	63.7	81	57.8	0	0	---	0.00	29.975 
01:35	63.5	63.5	63.5	82	57.9	0	0	---	0.00	29.977 
01:40	63.4	63.4	63.4	82	57.8	0	0	---	0.00	29.984 
01:45	63.2	63.2	63.2	82	57.6	0	0	---	0.00	29.982 
01:50	63.2	63.2	63.2	83	57.9	0	0	---	0.00	29.981 
01:55	63.2	63.2	63.2	83	57.9	0	0	---	0.00	29.982 
02:00	63.1	63.1	63.1	83	57.8	0	0	---	0.00	29.982 
02:05	63.1	63.1	63.1	83	57.8	0	0	---	0.00	29.977 
02:10	63.1	63.1	63.1	83	57.8	0	1	292	0.00	29.976 
02:15	63.2	63.2	63.2	83	57.9	0	1	292	0.00	29.976 
02:20	63.4	63.4	63.4	83	58.1	0	1	292	0.00	29.976 
02:25	63.7	63.7	63.7	82	58.1	0	2	292	0.00	29.978 
02:30	64.0	64.0	64.0	81	58.0	0	1	292	0.00	29.981 
02:35	64.3	64.3	64.3	81	58.3	0	1	292	0.00	29.983 
02:40	64.5	64.5	64.5	81	58.5	0	1	292	0.00	29.983 
02:45	64.7	64.7	64.7	80	58.4	0	1	292	0.00	29.983 
02:50	64.8	64.8	64.8	80	58.5	0	2	292	0.00	29.985 
02:55	65.0	65.0	65.0	79	58.3	0	1	248	0.00	29.984 
03:00	65.0	65.0	65.0	80	58.7	0	1	248	0.00	29.985 
03:05	64.8	64.8	64.8	80	58.5	0	1	248	0.00	29.984 
03:10	64.8	64.8	64.8	80	58.5	0	1	248	0.00	29.985 
03:15	64.8	64.8	64.8	80	58.5	0	1	248	0.00	29.985 
03:20	64.8	64.8	64.8	80	58.5	0	1	248	0.00	29.987 
03:25	64.7	64.7	64.7	80	58.4	0	1	248	0.00	29.989 
03:30	64.7	64.7	64.7	81	58.7	0	1	248	0.00	29.991 
03:35	64.5	64.5	64.5	81	58.5	0	1	248	0.00	29.991 
03:40	64.5	64.5	64.5	81	58.5	0	1	248	0.00	29.991 
03:45	64.3	64.3	64.3	81	58.3	0	1	248	0.00	29.995 
03:50	64.3	64.3	64.3	82	58.7	0	1	248	0.00	29.997 
03:55	64.2	64.2	64.2	82	58.6	0	1	248	0.00	29.998 
04:00	64.0	64.0	64.0	83	58.7	0	0	---	0.00	29.997 
04:05	63.9	63.9	63.9	83	58.6	0	0	---	0.00	29.995 
04:10	63.7	63.7	63.7	84	58.8	0	0	---	0.00	29.996 
04:15	63.5	63.5	63.5	84	58.6	0	0	---	0.00	29.999 
04:20	63.4	63.4	63.4	84	58.5	0	0	---	0.00	30.000 
04:25	63.4	63.4	63.4	85	58.8	0	0	---	0.00	30.003 
04:30	63.1	63.1	63.1	85	58.5	0	0	---	0.00	30.003 
04:35	63.1	63.1	63.1	86	58.8	0	0	---	0.00	30.005 
04:40	62.9	62.9	62.9	86	58.6	0	0	---	0.00	30.010 
04:45	62.7	62.7	62.7	87	58.8	0	0	---	0.00	30.016 
04:50	62.6	62.6	62.6	87	58.7	0	0	---	0.00	30.014 
04:55	62.4	62.4	62.4	87	58.5	0	0	---	0.00	30.014 
05:00	62.3	62.3	62.3	88	58.7	0	0	---	0.00	30.016 
05:05	62.0	62.0	62.0	88	58.4	0	0	---	0.00	30.018 
05:10	62.0	62.0	62.0	88	58.4	0	0	---	0.00	30.017 
05:15	61.8	61.8	61.8	89	58.5	0	0	---	0.00	30.016 
05:20	61.6	61.6	61.6	89	58.3	0	0	---	0.00	30.018 
05:25	61.5	61.5	61.5	90	58.5	0	0	---	0.00	30.019 
05:30	61.3	61.3	61.3	90	58.3	0	0	---	0.00	30.021 
05:35	61.3	61.3	61.3	90	58.3	0	0	---	0.00	30.021 
05:40	61.3	61.3	61.3	91	58.6	0	0	---	0.00	30.023 
05:45	61.3	61.3	61.3	91	58.6	0	0	---	0.00	30.023 
05:50	61.3	61.3	61.3	91	58.6	0	0	---	0.00	30.025 
05:55	61.3	61.3	61.3	91	58.6	0	0	---	0.00	30.029 
06:00	61.5	61.5	61.5	92	59.2	0	0	---	0.00	30.030 
06:05	61.6	61.6	61.6	92	59.2	0	0	---	0.00	30.033 
06:10	62.0	62.0	62.0	92	59.6	0	0	---	0.00	30.035 
06:15	62.3	62.3	62.3	92	59.9	0	0	---	0.00	30.037 
06:20	62.7	62.7	62.7	92	60.3	0	0	---	0.00	30.040 
06:25	63.4	63.4	63.4	91	60.7	0	0	---	0.00	30.039 
06:30	64.2	64.2	64.2	91	61.5	0	0	---	0.00	30.038 
06:35	65.0	65.0	65.0	89	61.7	0	1	248	0.00	30.043 
06:40	65.6	65.6	65.6	87	61.6	0	0	---	0.00	30.042 
06:45	66.6	66.6	66.6	84	61.6	0	1	248	0.00	30.041 
06:50	67.3	67.3	67.3	82	61.6	0	1	248	0.00	30.038 
06:55	68.1	68.1	68.1	80	61.7	0	1	248	0.00	30.042 
07:00	68.8	68.8	68.8	78	61.7	0	1	248	0.00	30.041 
07:05	69.4	69.4	69.4	77	61.9	0	1	248	0.00	30.043 
07:10	69.9	69.9	69.9	76	62.0	0	1	248	0.00	30.045 
07:15	70.4	70.4	70.4	73	61.3	1	2	248	0.00	30.047 
07:20	70.9	70.9	70.9	72	61.4	0	2	248	0.00	30.048 
07:25	71.3	71.3	71.3	72	61.8	0	2	248	0.00	30.049 
07:30	71.5	71.5	71.5	70	61.2	1	2	248	0.00	30.047 
07:35	71.8	71.8	71.8	70	61.5	1	3	248	0.00	30.049 
07:40	72.3	72.3	72.3	69	61.5	1	4	248	0.00	30.047 
07:45	72.8	72.8	72.8	66	60.8	1	4	248	0.00	30.044 
07:50	73.2	73.2	73.2	66	61.1	1	3	248	0.00	30.044 
07:55	73.5	73.5	73.5	64	60.6	1	2	248	0.00	30.044 
08:00	73.9	73.9	73.9	65	61.4	0	2	248	0.00	30.043 
08:05	74.0	74.0	74.0	63	60.6	1	2	248	0.00	30.048 
08:10	74.4	74.4	74.4	62	60.5	1	3	248	0.00	30.047 
08:15	74.6	74.6	74.6	62	60.7	1	2	248	0.00	30.045 
08:20	75.1	75.1	77.2	64	62.1	0	2	248	0.00	30.043 
08:25	75.4	75.4	77.6	61	61.0	1	2	248	0.00	30.040 
08:30	76.0	76.0	78.0	59	60.6	1	3	248	0.00	30.039 
08:35	76.3	76.3	78.2	59	60.9	1	2	248	0.00	30.039 
08:40	76.7	76.7	78.5	59	61.3	0	2	248	0.00	30.033 
08:45	77.0	77.0	78.8	58	61.1	1	2	292	0.00	30.033 
08:50	77.2	77.2	78.9	57	60.8	1	2	292	0.00	30.032 
08:55	77.2	77.2	78.9	56	60.3	1	3	292	0.00	30.032 
09:00	77.2	77.2	78.9	57	60.8	1	3	292	0.00	30.030 
09:05	77.6	77.6	79.3	59	62.1	1	3	292	0.00	30.032 
09:10	77.9	77.9	79.3	54	59.9	1	3	248	0.00	30.031 
09:15	78.3	78.3	79.8	56	61.3	1	2	248	0.00	30.029 
09:20	78.3	78.3	79.7	55	60.8	1	3	248	0.00	30.030 
09:25	78.6	78.6	80.0	55	61.1	1	3	248	0.00	30.029 
09:30	78.6	78.6	79.9	54	60.5	1	2	292	0.00	30.029 
09:35	78.8	78.8	80.0	53	60.2	1	2	315	0.00	30.030 
09:40	79.2	79.2	80.4	53	60.6	1	2	270	0.00	30.029 
09:45	79.6	79.6	80.9	55	62.0	0	2	270	0.00	30.030 
09:50	79.6	79.6	80.6	52	60.4	1	2	270	0.00	30.030 
09:55	79.8	79.8	81.2	56	62.7	1	3	315	0.00	30.030 
10:00	79.9	79.9	81.0	53	61.2	0	2	315	0.00	30.029 
10:05	80.3	80.3	81.4	53	61.6	0	2	315	0.00	30.030 
10:10	80.7	80.7	81.7	52	61.4	0	2	270	0.00	30.030 
10:15	80.9	80.9	81.9	52	61.6	1	2	270	0.00	30.035 
10:20	80.7	80.7	81.3	49	59.7	1	2	270	0.00	30.035 
10:25	80.7	80.7	81.3	49	59.7	1	4	248	0.00	30.034 
10:30	80.5	80.5	81.4	51	60.7	0	1	292	0.00	30.033 
10:35	80.9	80.9	82.0	53	62.1	1	3	225	0.00	30.031 
10:40	81.4	81.4	82.3	51	61.5	0	2	225	0.00	30.031 
10:45	81.6	81.6	82.2	49	60.6	1	3	225	0.00	30.032 
10:50	82.2	82.2	82.8	49	61.1	1	4	90	0.00	30.033 
10:55	82.4	82.4	83.4	51	62.4	1	3	45	0.00	30.031 
11:00	82.6	82.6	83.1	48	60.9	1	3	45	0.00	30.035 
11:05	82.6	82.6	83.6	51	62.6	1	3	292	0.00	30.038 
11:10	82.8	82.8	83.2	47	60.5	1	5	225	0.00	30.043 
11:15	83.0	83.0	83.4	47	60.7	2	5	112	0.00	30.037 
11:20	82.8	82.8	83.0	46	59.9	1	4	225	0.00	30.035 
11:25	83.2	83.2	84.1	50	62.6	1	3	135	0.00	30.036 
11:30	83.4	83.4	84.6	51	63.3	1	3	248	0.00	30.039 
11:35	83.2	83.2	83.6	47	60.8	1	4	248	0.00	30.042 
11:40	83.2	83.2	83.4	46	60.2	1	2	248	0.00	30.038 
11:45	83.6	83.6	84.4	49	62.4	1	3	158	0.00	30.040 
11:50	84.0	84.0	84.1	45	60.3	1	5	112	0.00	30.040 
11:55	83.8	83.8	84.3	47	61.4	1	5	90	0.00	30.042 
12:00	83.6	83.6	83.9	46	60.6	2	7	90	0.00	30.041 
12:05	83.2	83.2	83.3	45	59.6	2	7	90	0.00	30.042 
12:10	83.4	83.4	84.2	49	62.2	1	3	180	0.00	30.043 
12:15	83.2	83.2	83.6	47	60.8	1	3	248	0.00	30.044 
12:20	83.2	83.2	83.8	48	61.4	2	5	270	0.00	30.044 
12:25	82.8	82.8	83.3	48	61.1	2	4	270	0.00	30.045 
12:30	82.8	82.8	83.0	46	59.9	1	3	270	0.00	30.043 
12:35	83.0	83.0	83.4	47	60.7	1	4	248	0.00	30.044 
12:40	83.4	83.4	83.8	47	61.0	1	6	270	0.00	30.043 
12:45	83.8	83.8	84.1	46	60.8	1	4	225	0.00	30.042 
12:50	83.8	83.8	83.6	43	58.9	1	3	248	0.00	30.043 
12:55	84.0	84.0	83.6	42	58.4	2	6	90	0.00	30.044 
13:00	84.0	84.0	84.3	46	61.0	3	7	90	0.00	30.044 
13:05	83.8	83.8	84.1	46	60.8	2	5	112	0.00	30.046 
13:10	83.8	83.8	83.9	45	60.2	1	3	112	0.00	30.046 
13:15	83.2	83.2	83.0	43	58.3	1	3	270	0.00	30.046 
13:20	82.4	82.4	82.3	44	58.3	1	2	270	0.00	30.045 
13:25	82.4	82.4	82.9	48	60.7	1	3	270	0.00	30.048 
13:30	82.2	82.2	82.5	47	59.9	1	3	270	0.00	30.047 
13:35	82.2	82.2	82.4	46	59.3	1	5	270	0.00	30.050 
13:40	82.0	82.0	82.2	46	59.1	2	4	112	0.00	30.052 
13:45	82.0	82.0	82.2	46	59.1	1	3	112	0.00	30.050 
13:50	82.2	82.2	82.3	45	58.7	1	3	112	0.00	30.052 
13:55	82.8	82.8	82.9	45	59.3	1	2	90	0.00	30.056 
14:00	83.4	83.4	84.2	49	62.2	1	4	158	0.00	30.046 
14:05	83.6	83.6	83.0	41	57.4	1	4	90	0.00	30.044 
14:10	83.6	83.6	83.4	43	58.7	2	4	90	0.00	30.042 
14:15	83.6	83.6	83.5	44	59.3	1	3	248	0.00	30.042 
14:20	83.8	83.8	83.4	42	58.2	1	5	68	0.00	30.043 
14:25	84.0	84.0	83.8	43	59.1	2	4	112	0.00	30.042 
14:30	84.0	84.0	83.3	40	57.0	1	4	112	0.00	30.041 
14:35	84.3	84.3	84.1	43	59.3	1	5	112	0.00	30.042 
14:40	84.7	84.7	84.4	42	59.0	1	3	112	0.00	30.040 
14:45	84.9	84.9	84.6	42	59.2	1	3	112	0.00	30.036 
14:50	84.9	84.9	84.0	39	57.1	2	5	112	0.00	30.032 
14:55	84.7	84.7	84.2	41	58.4	1	4	158	0.00	30.036 
15:00	84.1	84.1	83.4	40	57.1	1	2	135	0.00	30.038 
15:05	83.4	83.4	83.0	42	57.9	1	4	270	0.00	30.037 
15:10	83.2	83.2	83.4	46	60.2	0	2	270	0.00	30.037 
15:15	83.0	83.0	82.5	41	56.8	1	5	270	0.00	30.036 
15:20	82.8	82.8	82.4	42	57.3	2	4	270	0.00	30.033 
15:25	83.2	83.2	82.8	42	57.7	1	3	68	0.00	30.033 
15:30	83.6	83.6	83.5	44	59.3	0	2	68	0.00	30.029 
15:35	83.8	83.8	83.7	44	59.5	1	3	68	0.00	30.030 
15:40	83.8	83.8	83.6	43	58.9	1	5	68	0.00	30.028 
15:45	83.6	83.6	83.4	43	58.7	1	3	225	0.00	30.028 
15:50	83.8	83.8	83.4	42	58.2	1	4	90	0.00	30.029 
15:55	84.1	84.1	83.9	43	59.2	1	4	112	0.00	30.028 
16:00	84.5	84.5	83.6	39	56.8	1	3	112	0.00	30.028 
16:05	84.5	84.5	84.0	41	58.2	2	4	135	0.00	30.027 
16:10	84.5	84.5	84.5	44	60.2	1	4	90	0.00	30.027 
16:15	84.5	84.5	83.6	39	56.8	2	5	112	0.00	30.028 
16:20	84.7	84.7	84.0	40	57.7	1	3	112	0.00	30.028 
16:25	84.7	84.7	84.4	42	59.0	1	3	248	0.00	30.028 
16:30	84.5	84.5	84.5	44	60.2	2	5	112	0.00	30.026 
16:35	84.3	84.3	83.8	41	58.0	1	5	112	0.00	30.027 
16:40	84.0	84.0	84.0	44	59.7	2	4	112	0.00	30.025 
16:45	84.0	84.0	83.8	43	59.1	1	3	112	0.00	30.027 
16:50	83.6	83.6	83.2	42	58.0	3	5	135	0.00	30.024 
16:55	83.6	83.6	83.2	42	58.0	2	5	158	0.00	30.017 
17:00	83.6	83.6	83.4	43	58.7	2	6	135	0.00	30.014 
17:05	83.8	83.8	83.7	44	59.5	1	5	90	0.00	30.023 
17:10	84.0	84.0	83.6	42	58.4	2	5	90	0.00	30.017 
17:15	83.8	83.8	83.6	43	58.9	2	5	112	0.00	30.016 
17:20	83.6	83.6	83.2	42	58.0	2	5	112	0.00	30.013 
17:25	83.2	83.2	82.8	42	57.7	2	5	112	0.00	30.015 
17:30	83.2	83.2	82.5	40	56.3	2	4	112	0.00	30.014 
17:35	83.0	83.0	82.5	41	56.8	2	5	112	0.00	30.015 
17:40	83.0	83.0	82.9	44	58.8	1	5	112	0.00	30.013 
17:45	83.0	83.0	82.5	41	56.8	1	5	112	0.00	30.014 
17:50	83.0	83.0	82.8	43	58.2	1	4	135	0.00	30.014 
17:55	82.8	82.8	82.4	42	57.3	1	3	90	0.00	30.014 
18:00	82.8	82.8	82.6	43	58.0	1	5	90	0.00	30.014 
18:05	82.6	82.6	82.4	43	57.8	2	5	45	0.00	30.007 
18:10	82.4	82.4	82.5	45	58.9	1	4	90	0.00	30.008 
18:15	82.2	82.2	82.1	44	58.1	1	3	135	0.00	30.010 
18:20	81.8	81.8	81.8	44	57.7	1	4	90	0.00	30.010 
18:25	81.6	81.6	81.6	44	57.5	1	4	112	0.00	30.010 
18:30	81.6	81.6	81.7	45	58.2	1	3	112	0.00	30.009 
18:35	81.6	81.6	81.7	45	58.2	1	2	112	0.00	30.010 
18:40	81.4	81.4	81.6	46	58.6	0	2	112	0.00	30.009 
18:45	81.1	81.1	81.5	47	58.9	0	1	112	0.00	30.008 
18:50	80.9	80.9	81.3	47	58.8	0	2	112	0.00	30.007 
18:55	80.7	80.7	81.3	49	59.7	0	2	112	0.00	30.006 
19:00	80.7	80.7	81.3	49	59.7	1	2	112	0.00	30.006 
19:05	80.5	80.5	81.3	50	60.1	1	3	112	0.00	30.000 
19:10	80.5	80.5	81.3	50	60.1	0	1	112	0.00	29.996 
19:15	80.3	80.3	81.2	51	60.5	0	2	112	0.00	30.000 
19:20	80.1	80.1	81.0	51	60.3	0	2	112	0.00	30.001 
19:25	79.9	79.9	80.9	52	60.7	0	3	112	0.00	30.000 
19:30	79.6	79.6	80.6	52	60.4	0	3	112	0.00	30.001 
19:35	79.4	79.4	80.5	53	60.8	0	1	112	0.00	30.003 
19:40	79.2	79.2	80.4	54	61.1	0	0	---	0.00	30.005 
19:45	78.8	78.8	80.1	54	60.7	0	0	---	0.00	30.004 
19:50	78.5	78.5	79.9	55	61.0	0	0	---	0.00	30.005 
19:55	78.1	78.1	79.6	56	61.1	0	0	---	0.00	30.006 
20:00	77.6	77.6	79.2	57	61.1	0	0	---	0.00	30.005 
20:05	77.2	77.2	78.9	58	61.3	0	0	---	0.00	30.004 
20:10	76.8	76.8	78.6	58	60.9	0	0	---	0.00	30.005 
20:15	76.3	76.3	78.2	59	60.9	0	0	---	0.00	30.005 
20:20	75.8	75.8	77.9	60	60.9	0	0	---	0.00	30.006 
20:25	75.4	75.4	77.6	61	61.0	0	0	---	0.00	30.006 
20:30	75.1	75.1	77.3	62	61.2	0	0	---	0.00	30.005 
20:35	74.7	74.7	74.7	63	61.2	0	0	---	0.00	30.004 
20:40	74.4	74.4	74.4	64	61.4	0	0	---	0.00	30.002 
20:45	74.0	74.0	74.0	65	61.5	0	0	---	0.00	30.002 
20:50	73.7	73.7	73.7	66	61.6	0	0	---	0.00	30.004 
20:55	73.3	73.3	73.3	67	61.7	0	0	---	0.00	30.004 
21:00	73.2	73.2	73.2	68	62.0	0	0	---	0.00	30.008 
21:05	73.0	73.0	73.0	69	62.2	0	0	---	0.00	30.006 
21:10	72.7	72.7	72.7	69	61.9	0	0	---	0.00	30.007 
21:15	72.5	72.5	72.5	70	62.1	0	0	---	0.00	30.007 
21:20	72.3	72.3	72.3	71	62.4	0	0	---	0.00	30.007 
21:25	72.1	72.1	72.1	71	62.2	0	0	---	0.00	30.008 
21:30	72.0	72.0	72.0	72	62.5	0	1	112	0.00	30.007 
21:35	72.0	72.0	72.0	72	62.5	0	0	---	0.00	30.009 
21:40	71.8	71.8	71.8	72	62.3	0	0	---	0.00	30.008 
21:45	71.6	71.6	71.6	72	62.1	0	0	---	0.00	30.011 
21:50	71.6	71.6	71.6	71	61.7	0	1	112	0.00	30.008 
21:55	72.1	72.1	72.1	71	62.2	0	1	112	0.00	30.007 
22:00	72.7	72.7	72.7	70	62.3	0	2	112	0.00	30.000 
22:05	73.2	73.2	73.2	69	62.4	1	3	112	0.00	29.999 
22:10	73.5	73.5	73.5	69	62.7	1	3	112	0.00	30.000 
22:15	73.7	73.7	73.7	69	62.9	1	3	68	0.00	30.002 
22:20	73.9	73.9	73.9	69	63.1	1	2	68	0.00	30.000 
22:25	73.7	73.7	73.7	69	62.9	1	2	68	0.00	29.996 
22:30	73.7	73.7	73.7	69	62.9	1	2	68	0.00	29.990 
22:35	73.7	73.7	73.7	69	62.9	1	3	90	0.00	29.989 
22:40	73.7	73.7	73.7	69	62.9	1	3	90	0.00	29.989 
22:45	73.7	73.7	73.7	69	62.9	1	3	112	0.00	29.990 
22:50	73.7	73.7	73.7	69	62.9	0	2	112	0.00	29.990 
22:55	73.5	73.5	73.5	70	63.1	0	2	112	0.00	29.990 
23:00	73.3	73.3	73.3	70	62.9	0	2	112	0.00	29.993 
23:05	73.2	73.2	73.2	70	62.8	0	2	112	0.00	29.996 
23:10	73.0	73.0	73.0	69	62.2	0	2	112	0.00	29.996 
23:15	73.0	73.0	73.0	70	62.6	0	2	112	0.00	29.997 
23:20	73.0	73.0	73.0	69	62.2	1	2	112	0.00	29.994 
23:25	72.8	72.8	72.8	69	62.0	0	2	112	0.00	29.997 
23:30	72.8	72.8	72.8	68	61.6	1	3	112	0.00	29.999 
23:35	73.0	73.0	73.0	67	61.4	1	3	112	0.00	29.999 
23:40	73.2	73.2	73.2	66	61.1	1	2	112	0.00	29.994 
23:45	73.2	73.2	73.2	66	61.1	1	4	135	0.00	29.995 
23:50	73.0	73.0	73.0	67	61.4	1	4	135	0.00	29.993 
23:55	73.0	73.0	73.0	66	61.0	1	3	112	0.00	29.995 

CoCoRaHS
IN-AL-39
A2 Web Hosting
Creative Commons License
GoDaddy
Look for:

loaded 2017-12-13 10:07:57 • last modified 2010-11-18 10:43:29
Privacy PolicyDisclaimer
• wx.awcolley.com is powered by PmWiki v.2002016 •
• all content (unless otherwise noted) © 2017 A W Colley